Valmiera, Latvia
Current Conditions -  °F | °C
As of 7:20 AM on Friday 19 Dec 2014 (Local Time) from EVRA Reporting Station
Overcast Overcast  
Wind Chill: 32°   Ceiling: 300
Heat Index: 39°   Visibility: 4mi
Dew Point: 39°   Wind: 12mph
Humidity: 100%   Direction: 180°S
Pressure: 29.23"   Gusts: NA
Location:  57.55°N, 25.42°E
Report Text: EVRA 190420Z 18010KT 6000 OVC003 04/04 Q0990 R18/290195 NOSIG
Loading
Personal Weather Stations






























Interactive Weather Map New forecast layout! Learn more

10-Day Weather Forecast

Advertisements
Track Severe Weather on mobile